createdAt,value
2023-02-09T00:02:20.906Z,64.50
2023-02-09T00:04:49.253Z,64.36
2023-02-09T00:07:18.038Z,64.40
2023-02-09T00:09:46.220Z,64.46
2023-02-09T00:12:33.536Z,64.62
2023-02-09T00:15:02.231Z,64.69
2023-02-09T00:17:33.989Z,64.68
2023-02-09T00:20:06.543Z,64.86
2023-02-09T00:22:35.058Z,64.95
2023-02-09T00:25:03.654Z,64.89
2023-02-09T00:27:35.781Z,64.98
2023-02-09T00:30:05.907Z,64.68
2023-02-09T00:32:34.326Z,64.95
2023-02-09T00:35:02.715Z,64.82
2023-02-09T00:37:30.991Z,64.82
2023-02-09T00:39:59.372Z,64.65
2023-02-09T00:42:27.565Z,64.62
2023-02-09T00:44:55.951Z,64.81
2023-02-09T00:47:24.321Z,64.79
2023-02-09T00:49:52.710Z,64.65
2023-02-09T00:52:21.195Z,64.64
2023-02-09T00:54:49.501Z,64.58
2023-02-09T00:57:18.069Z,64.61
2023-02-09T00:59:46.759Z,64.49
2023-02-09T01:02:15.347Z,64.60
2023-02-09T01:04:44.169Z,64.69
2023-02-09T01:07:13.752Z,64.66
2023-02-09T01:09:41.940Z,64.32
2023-02-09T01:12:10.417Z,64.51
2023-02-09T01:14:39.417Z,64.37
2023-02-09T01:17:08.001Z,64.43
2023-02-09T01:19:36.692Z,64.68
2023-02-09T01:22:05.186Z,64.27
2023-02-09T01:24:33.565Z,64.43
2023-02-09T01:27:02.906Z,64.64
2023-02-09T01:29:32.996Z,64.50
2023-02-09T01:32:01.948Z,64.48
2023-02-09T01:34:30.380Z,64.60
2023-02-09T01:36:59.374Z,64.42
2023-02-09T01:39:27.668Z,64.55
2023-02-09T01:41:55.890Z,64.49
2023-02-09T01:44:24.035Z,64.17
2023-02-09T01:46:52.626Z,63.93
2023-02-09T01:49:27.239Z,63.85
2023-02-09T01:52:01.471Z,63.96
2023-02-09T01:54:38.844Z,63.79
2023-02-09T01:57:18.897Z,64.09
2023-02-09T01:59:51.808Z,64.04
2023-02-09T02:02:21.739Z,64.32
2023-02-09T02:04:51.896Z,64.26
2023-02-09T02:07:38.534Z,64.36
2023-02-09T02:10:07.554Z,64.24
2023-02-09T02:12:38.170Z,64.12
2023-02-09T02:15:07.707Z,64.12
2023-02-09T02:18:06.243Z,64.30
2023-02-09T02:20:49.577Z,64.11
2023-02-09T02:23:39.611Z,64.85
2023-02-09T02:26:32.598Z,64.82
2023-02-09T02:29:44.165Z,65.09
2023-02-09T02:32:57.775Z,65.03
2023-02-09T02:35:31.687Z,65.05
2023-02-09T02:38:20.036Z,65.25
2023-02-09T02:41:08.467Z,64.91
2023-02-09T02:44:01.722Z,64.96
2023-02-09T02:46:53.037Z,64.82
2023-02-09T02:49:33.172Z,64.76
2023-02-09T02:52:06.966Z,64.77
2023-02-09T02:55:00.663Z,64.70
2023-02-09T02:57:33.412Z,64.46
2023-02-09T03:00:08.741Z,64.48
2023-02-09T03:02:41.444Z,64.52
2023-02-09T03:05:10.670Z,64.79
2023-02-09T03:07:38.956Z,64.70
2023-02-09T03:10:24.021Z,64.71
2023-02-09T03:13:04.890Z,64.29
2023-02-09T03:15:42.755Z,64.62
2023-02-09T03:18:36.815Z,64.44
2023-02-09T03:21:21.324Z,64.47
2023-02-09T03:24:07.150Z,64.05
2023-02-09T03:26:47.856Z,64.60
2023-02-09T03:29:18.343Z,64.57
2023-02-09T03:31:49.183Z,64.56
2023-02-09T03:34:18.384Z,64.67
2023-02-09T03:36:52.380Z,64.43
2023-02-09T03:39:21.042Z,64.36
2023-02-09T03:41:49.522Z,64.41
2023-02-09T03:44:27.122Z,64.64
2023-02-09T03:46:59.701Z,64.59
2023-02-09T03:49:46.705Z,64.29
2023-02-09T03:52:17.052Z,64.11
2023-02-09T03:54:45.394Z,64.20
2023-02-09T03:57:13.801Z,64.22
2023-02-09T03:59:42.207Z,64.35
2023-02-09T04:02:11.131Z,64.36
2023-02-09T04:04:39.674Z,64.23
2023-02-09T04:07:08.053Z,64.36
2023-02-09T04:09:37.779Z,64.10
2023-02-09T04:12:06.285Z,64.15
2023-02-09T04:14:34.653Z,64.43
2023-02-09T04:17:02.920Z,64.24
2023-02-09T04:19:31.306Z,64.26
2023-02-09T04:22:00.306Z,64.00
2023-02-09T04:24:29.309Z,63.98
2023-02-09T04:26:57.794Z,63.85
2023-02-09T04:29:26.282Z,64.07
2023-02-09T04:31:54.907Z,63.84
2023-02-09T04:34:24.821Z,63.98
2023-02-09T04:36:53.390Z,63.89
2023-02-09T04:39:22.379Z,63.81
2023-02-09T04:41:50.662Z,64.15
2023-02-09T04:44:18.939Z,64.03
2023-02-09T04:46:47.439Z,64.04
2023-02-09T04:49:15.716Z,63.73
2023-02-09T04:51:44.096Z,63.58
2023-02-09T04:54:12.482Z,63.91
2023-02-09T04:56:40.677Z,63.67
2023-02-09T04:59:29.102Z,63.62
2023-02-09T05:01:57.591Z,63.58
2023-02-09T05:04:26.079Z,63.58
2023-02-09T05:06:54.562Z,63.74
2023-02-09T05:09:22.952Z,63.10
2023-02-09T05:11:51.229Z,63.48
2023-02-09T05:14:19.627Z,63.02
2023-02-09T05:16:47.863Z,63.43
2023-02-09T05:19:16.174Z,63.14
2023-02-09T05:21:44.356Z,63.36
2023-02-09T05:24:12.757Z,63.24
2023-02-09T05:26:41.132Z,63.14
2023-02-09T05:29:10.074Z,63.26
2023-02-09T05:31:38.654Z,63.31
2023-02-09T05:34:07.099Z,63.19
2023-02-09T05:36:35.591Z,63.30
2023-02-09T05:39:04.387Z,63.15
2023-02-09T05:41:51.286Z,63.07
2023-02-09T05:44:19.467Z,63.18
2023-02-09T05:46:47.750Z,63.33
2023-02-09T05:49:16.650Z,63.34
2023-02-09T05:51:45.235Z,63.38
2023-02-09T05:54:13.625Z,63.15
2023-02-09T05:56:41.902Z,63.23
2023-02-09T05:59:10.318Z,63.04
2023-02-09T06:01:40.149Z,63.26
2023-02-09T06:04:09.381Z,63.23
2023-02-09T06:06:37.685Z,63.35
2023-02-09T06:09:06.078Z,62.81
2023-02-09T06:11:35.373Z,62.82
2023-02-09T06:14:03.869Z,62.86
2023-02-09T06:16:32.349Z,63.05
2023-02-09T06:19:00.533Z,63.08
2023-02-09T06:21:29.115Z,62.87
2023-02-09T06:23:57.296Z,62.68
2023-02-09T06:26:25.685Z,63.13
2023-02-09T06:28:54.372Z,63.23
2023-02-09T06:31:23.358Z,63.08
2023-02-09T06:33:51.756Z,63.40
2023-02-09T06:36:20.246Z,63.10
2023-02-09T06:38:49.367Z,63.19
2023-02-09T06:41:17.738Z,63.16
2023-02-09T06:43:46.037Z,63.33
2023-02-09T06:46:14.539Z,63.26
2023-02-09T06:48:43.092Z,63.51
2023-02-09T06:51:14.548Z,63.97
2023-02-09T06:53:43.543Z,63.84
2023-02-09T06:56:13.334Z,64.01
2023-02-09T06:58:42.472Z,64.09
2023-02-09T07:01:15.831Z,64.35
2023-02-09T07:03:45.090Z,65.04
2023-02-09T07:06:16.116Z,64.80
2023-02-09T07:08:45.701Z,64.92
2023-02-09T07:11:15.648Z,65.04
2023-02-09T07:13:44.465Z,65.07
2023-02-09T07:16:13.189Z,65.09
2023-02-09T07:18:41.716Z,65.06
2023-02-09T07:21:15.733Z,65.24
2023-02-09T07:23:44.111Z,65.29
2023-02-09T07:26:17.786Z,65.22
2023-02-09T07:28:46.408Z,65.13
2023-02-09T07:31:16.717Z,65.37
2023-02-09T07:33:45.629Z,65.30
2023-02-09T07:36:15.969Z,65.48
2023-02-09T07:38:44.545Z,65.26
2023-02-09T07:41:15.912Z,65.33
2023-02-09T07:43:44.387Z,65.32
2023-02-09T07:46:16.665Z,65.30
2023-02-09T07:48:45.797Z,65.77
2023-02-09T07:51:16.177Z,65.48
2023-02-09T07:53:44.575Z,65.93
2023-02-09T07:56:13.445Z,65.84
2023-02-09T07:58:41.853Z,65.91
2023-02-09T08:01:12.905Z,65.75
2023-02-09T08:03:44.664Z,65.84
2023-02-09T08:06:36.256Z,65.74
2023-02-09T08:09:10.566Z,65.83
2023-02-09T08:11:43.005Z,65.58
2023-02-09T08:14:43.206Z,65.38
2023-02-09T08:17:21.189Z,65.48
2023-02-09T08:20:20.888Z,65.09
2023-02-09T08:22:53.761Z,65.07
2023-02-09T08:25:25.173Z,64.03
2023-02-09T08:27:53.771Z,63.75
2023-02-09T08:30:22.406Z,64.01
2023-02-09T08:32:50.684Z,63.58
2023-02-09T08:35:18.972Z,62.60
2023-02-09T08:37:47.458Z,62.78
2023-02-09T08:40:15.939Z,62.05
2023-02-09T08:42:44.224Z,61.60
2023-02-09T08:45:12.604Z,61.08
2023-02-09T08:47:40.887Z,60.59
2023-02-09T08:50:09.679Z,60.47
2023-02-09T08:52:38.291Z,60.12
2023-02-09T08:55:07.266Z,59.44
2023-02-09T08:57:44.115Z,58.85
2023-02-09T09:00:14.377Z,58.95
2023-02-09T09:02:42.560Z,58.27
2023-02-09T09:05:11.965Z,57.92
2023-02-09T09:07:40.252Z,58.02
2023-02-09T09:10:09.503Z,58.13
2023-02-09T09:12:38.357Z,57.68
2023-02-09T09:15:07.207Z,56.29
2023-02-09T09:17:35.536Z,53.81
2023-02-09T09:20:04.486Z,52.27
2023-02-09T09:22:32.810Z,51.47
2023-02-09T09:25:01.103Z,50.35
2023-02-09T09:27:29.580Z,50.08
2023-02-09T09:29:57.759Z,47.81
2023-02-09T09:32:26.278Z,46.82
2023-02-09T09:34:59.458Z,47.27
2023-02-09T09:37:27.825Z,46.71
2023-02-09T09:39:56.513Z,46.20
2023-02-09T09:42:32.471Z,46.27
2023-02-09T09:45:01.637Z,40.79
2023-02-09T09:47:42.444Z,38.91
2023-02-09T09:50:26.591Z,40.24
2023-02-09T09:53:01.420Z,38.65
2023-02-09T09:55:32.053Z,38.31
2023-02-09T09:58:05.218Z,38.22
2023-02-09T10:00:38.522Z,37.03
2023-02-09T10:03:18.698Z,35.85
2023-02-09T10:05:55.980Z,36.09
2023-02-09T10:08:41.466Z,36.75
2023-02-09T10:11:20.694Z,35.77
2023-02-09T10:13:52.961Z,37.32
2023-02-09T10:16:34.786Z,36.84
2023-02-09T10:19:06.106Z,34.99
2023-02-09T10:21:36.318Z,35.57
2023-02-09T10:24:14.861Z,33.07
2023-02-09T10:26:43.552Z,33.09
2023-02-09T10:29:11.921Z,32.78
2023-02-09T10:31:44.939Z,31.71
2023-02-09T10:34:17.492Z,30.56
2023-02-09T10:36:55.408Z,30.46
2023-02-09T10:39:35.804Z,31.80
2023-02-09T10:42:19.510Z,30.22
2023-02-09T10:44:54.211Z,28.70
2023-02-09T10:47:25.274Z,28.75
2023-02-09T10:50:00.289Z,30.83
2023-02-09T10:52:36.862Z,31.09
2023-02-09T10:55:23.057Z,29.65
2023-02-09T10:57:51.543Z,30.04
2023-02-09T11:00:19.699Z,28.28
2023-02-09T11:03:02.020Z,30.11
2023-02-09T11:05:35.880Z,28.59
2023-02-09T11:08:17.112Z,27.81
2023-02-09T11:11:32.058Z,27.98
2023-02-09T11:14:01.308Z,27.93
2023-02-09T11:16:36.601Z,27.25
2023-02-09T11:19:22.857Z,25.81
2023-02-09T11:22:12.304Z,25.93
2023-02-09T11:24:55.874Z,25.24
2023-02-09T11:27:30.006Z,26.31
2023-02-09T11:30:39.978Z,27.10
2023-02-09T11:33:53.263Z,25.61
2023-02-09T11:36:28.286Z,24.71
2023-02-09T11:39:12.222Z,24.58
2023-02-09T11:42:09.264Z,25.85
2023-02-09T11:44:44.623Z,26.15
2023-02-09T11:47:21.066Z,26.62
2023-02-09T11:49:53.740Z,26.18
2023-02-09T11:52:34.428Z,26.39
2023-02-09T11:55:19.595Z,25.90
2023-02-09T11:57:53.504Z,25.57
2023-02-09T12:00:28.032Z,26.05
2023-02-09T12:03:04.607Z,26.49
2023-02-09T12:05:33.492Z,27.34
2023-02-09T12:08:23.775Z,27.08
2023-02-09T12:11:04.297Z,27.25
2023-02-09T12:13:58.001Z,28.02
2023-02-09T12:16:28.984Z,28.17
2023-02-09T12:18:57.230Z,28.69
2023-02-09T12:21:35.071Z,28.58
2023-02-09T12:24:27.453Z,28.53
2023-02-09T12:26:56.792Z,28.71
2023-02-09T12:29:41.540Z,28.52
2023-02-09T12:32:37.635Z,28.75
2023-02-09T12:35:37.539Z,29.26
2023-02-09T12:38:15.435Z,29.33
2023-02-09T12:40:44.325Z,29.48
2023-02-09T12:43:25.670Z,29.83
2023-02-09T12:46:12.752Z,30.50
2023-02-09T12:48:53.116Z,30.36
2023-02-09T12:51:37.530Z,29.81
2023-02-09T12:54:38.056Z,29.09
2023-02-09T12:57:15.456Z,29.84
2023-02-09T12:59:50.554Z,29.63
2023-02-09T13:02:46.447Z,29.52
2023-02-09T13:05:25.423Z,29.45
2023-02-09T13:08:16.002Z,29.42
2023-02-09T13:10:47.564Z,27.03
2023-02-09T13:13:28.432Z,27.24
2023-02-09T13:16:05.430Z,26.76
2023-02-09T13:18:56.723Z,27.48
2023-02-09T13:21:40.154Z,28.06
2023-02-09T13:24:36.504Z,28.85
2023-02-09T13:27:18.696Z,28.96
2023-02-09T13:29:59.958Z,30.04
2023-02-09T13:32:37.345Z,30.80
2023-02-09T13:35:29.775Z,31.70
2023-02-09T13:38:00.623Z,31.94
2023-02-09T13:40:33.106Z,32.44
2023-02-09T13:43:07.310Z,33.16
2023-02-09T13:45:35.750Z,33.24
2023-02-09T13:48:20.597Z,33.71
2023-02-09T13:50:50.253Z,33.24
2023-02-09T13:53:23.427Z,33.29
2023-02-09T13:55:56.123Z,33.35
2023-02-09T13:58:35.722Z,33.19
2023-02-09T14:01:14.188Z,33.59
2023-02-09T14:03:58.534Z,34.40
2023-02-09T14:06:39.424Z,34.78
2023-02-09T14:09:15.887Z,35.37
2023-02-09T14:11:53.785Z,35.25
2023-02-09T14:14:28.732Z,35.83
2023-02-09T14:17:25.538Z,35.35
2023-02-09T14:19:56.149Z,35.69
2023-02-09T14:22:33.981Z,36.03
2023-02-09T14:25:26.549Z,36.56
2023-02-09T14:27:55.925Z,37.37
2023-02-09T14:30:34.351Z,36.95
2023-02-09T14:33:06.302Z,36.19
2023-02-09T14:35:40.442Z,35.37
2023-02-09T14:38:54.452Z,35.27
2023-02-09T14:41:30.933Z,35.31
2023-02-09T14:44:21.519Z,35.56
2023-02-09T14:46:58.938Z,35.97
2023-02-09T14:49:28.938Z,36.50
2023-02-09T14:52:15.024Z,37.00
2023-02-09T14:54:48.929Z,37.38
2023-02-09T14:57:17.507Z,37.12
2023-02-09T14:59:46.303Z,36.90
2023-02-09T15:02:22.356Z,37.39
2023-02-09T15:04:50.848Z,38.23
2023-02-09T15:07:23.952Z,38.37
2023-02-09T15:09:52.436Z,38.63
2023-02-09T15:12:29.825Z,39.18
2023-02-09T15:15:00.579Z,39.76
2023-02-09T15:17:30.492Z,39.37
2023-02-09T15:19:59.222Z,39.58
2023-02-09T15:22:27.562Z,40.37
2023-02-09T15:24:56.148Z,40.67
2023-02-09T15:27:32.527Z,41.79
2023-02-09T15:30:04.120Z,42.45
2023-02-09T15:32:33.571Z,42.67
2023-02-09T15:35:02.262Z,42.57
2023-02-09T15:37:37.177Z,43.14
2023-02-09T15:40:14.591Z,43.58
2023-02-09T15:43:01.698Z,44.05
2023-02-09T15:45:49.456Z,43.86
2023-02-09T15:48:17.712Z,43.12
2023-02-09T15:50:48.263Z,43.49
2023-02-09T15:53:19.050Z,44.21
2023-02-09T15:55:48.051Z,43.78
2023-02-09T15:58:19.839Z,44.24
2023-02-09T16:00:48.338Z,44.14
2023-02-09T16:03:21.722Z,44.67
2023-02-09T16:05:55.740Z,45.46
2023-02-09T16:08:30.450Z,45.29
2023-02-09T16:11:00.177Z,45.85
2023-02-09T16:13:31.531Z,45.97
2023-02-09T16:16:14.860Z,46.49
2023-02-09T16:18:45.954Z,46.53
2023-02-09T16:21:26.466Z,46.99
2023-02-09T16:23:57.569Z,47.50
2023-02-09T16:26:28.263Z,47.11
2023-02-09T16:28:57.701Z,47.19
2023-02-09T16:31:26.772Z,47.35
2023-02-09T16:33:55.040Z,48.32
2023-02-09T16:36:27.318Z,48.99
2023-02-09T16:38:55.600Z,49.18
2023-02-09T16:41:42.917Z,48.51
2023-02-09T16:44:21.231Z,48.12
2023-02-09T16:46:53.014Z,48.96
2023-02-09T16:49:30.173Z,49.13
2023-02-09T16:52:04.197Z,49.52
2023-02-09T16:54:39.748Z,49.59
2023-02-09T16:57:11.931Z,49.79
2023-02-09T16:59:40.392Z,50.09
2023-02-09T17:02:28.472Z,49.86
2023-02-09T17:04:58.344Z,49.92
2023-02-09T17:07:39.805Z,49.78
2023-02-09T17:10:19.979Z,50.34
2023-02-09T17:12:48.878Z,50.58
2023-02-09T17:15:29.322Z,50.54
2023-02-09T17:18:07.234Z,50.44
2023-02-09T17:20:43.062Z,50.62
2023-02-09T17:23:17.716Z,50.79
2023-02-09T17:25:47.370Z,50.75
2023-02-09T17:28:15.871Z,50.82
2023-02-09T17:30:45.382Z,51.32
2023-02-09T17:33:24.877Z,52.12
2023-02-09T17:36:23.863Z,52.49
2023-02-09T17:38:44.867Z,51.87
2023-02-09T17:41:22.770Z,52.30
2023-02-09T17:43:53.809Z,52.29
2023-02-09T17:46:22.040Z,52.79
2023-02-09T17:48:50.597Z,52.66
2023-02-09T17:51:30.413Z,52.44
2023-02-09T17:53:58.919Z,52.60
2023-02-09T17:56:27.716Z,53.58
2023-02-09T17:58:57.444Z,53.58
2023-02-09T18:01:29.167Z,53.81
2023-02-09T18:04:02.436Z,54.20
2023-02-09T18:06:39.609Z,54.86
2023-02-09T18:09:10.405Z,54.79
2023-02-09T18:11:52.359Z,54.81
2023-02-09T18:14:22.374Z,54.86
2023-02-09T18:16:51.167Z,54.96
2023-02-09T18:19:19.701Z,54.81
2023-02-09T18:21:49.855Z,55.08
2023-02-09T18:24:20.152Z,55.09
2023-02-09T18:26:50.791Z,55.69
2023-02-09T18:29:22.972Z,55.49
2023-02-09T18:31:51.549Z,55.57
2023-02-09T18:34:20.448Z,55.79
2023-02-09T18:36:48.734Z,55.51
2023-02-09T18:39:17.822Z,55.33
2023-02-09T18:41:48.562Z,55.64
2023-02-09T18:44:16.743Z,55.60
2023-02-09T18:46:44.973Z,55.41
2023-02-09T18:49:13.512Z,55.29
2023-02-09T18:51:42.102Z,55.16
2023-02-09T18:54:10.298Z,55.21
2023-02-09T18:56:39.097Z,55.45
2023-02-09T18:59:08.277Z,55.74
2023-02-09T19:01:37.009Z,56.01
2023-02-09T19:04:05.871Z,55.87
2023-02-09T19:06:35.689Z,55.66
2023-02-09T19:09:04.602Z,56.27
2023-02-09T19:11:33.541Z,55.86
2023-02-09T19:14:20.797Z,56.13
2023-02-09T19:16:49.200Z,56.28
2023-02-09T19:19:19.213Z,56.44
2023-02-09T19:21:47.994Z,56.68
2023-02-09T19:24:16.181Z,56.51
2023-02-09T19:26:44.907Z,56.74
2023-02-09T19:29:14.042Z,56.71
2023-02-09T19:31:42.965Z,56.37
2023-02-09T19:34:11.451Z,56.64
2023-02-09T19:36:39.952Z,56.50
2023-02-09T19:39:08.118Z,56.54
2023-02-09T19:41:36.402Z,56.77
2023-02-09T19:44:04.888Z,56.77
2023-02-09T19:46:33.408Z,56.79
2023-02-09T19:49:02.377Z,56.96
2023-02-09T19:51:30.981Z,57.00
2023-02-09T19:53:59.352Z,56.90
2023-02-09T19:56:28.353Z,56.76
2023-02-09T19:58:57.073Z,57.40
2023-02-09T20:01:27.162Z,57.86
2023-02-09T20:03:56.372Z,57.76
2023-02-09T20:06:24.964Z,57.55
2023-02-09T20:08:53.338Z,57.41
2023-02-09T20:11:22.376Z,57.39
2023-02-09T20:13:52.711Z,57.59
2023-02-09T20:16:24.498Z,57.30
2023-02-09T20:18:54.129Z,57.82
2023-02-09T20:21:24.078Z,58.08
2023-02-09T20:23:57.243Z,58.03
2023-02-09T20:26:29.508Z,57.83
2023-02-09T20:28:58.933Z,58.01
2023-02-09T20:31:34.988Z,58.01
2023-02-09T20:34:08.910Z,58.18
2023-02-09T20:36:39.586Z,58.24
2023-02-09T20:39:13.451Z,57.93
2023-02-09T20:42:03.328Z,57.91
2023-02-09T20:44:52.305Z,57.55
2023-02-09T20:47:20.662Z,57.55
2023-02-09T20:49:49.105Z,58.08
2023-02-09T20:52:17.841Z,57.97
2023-02-09T20:54:46.228Z,57.72
2023-02-09T20:57:14.460Z,57.65
2023-02-09T20:59:42.792Z,57.69
2023-02-09T21:02:15.153Z,57.77
2023-02-09T21:04:43.556Z,57.94
2023-02-09T21:07:13.368Z,57.80
2023-02-09T21:09:41.754Z,57.92
2023-02-09T21:12:13.215Z,57.84
2023-02-09T21:14:45.228Z,58.12
2023-02-09T21:17:14.279Z,58.31
2023-02-09T21:19:42.557Z,58.54
2023-02-09T21:22:11.966Z,58.69
2023-02-09T21:24:40.347Z,58.98
2023-02-09T21:27:10.471Z,58.89
2023-02-09T21:29:38.656Z,58.76
2023-02-09T21:32:07.713Z,58.80
2023-02-09T21:34:36.156Z,58.90
2023-02-09T21:37:08.033Z,58.59
2023-02-09T21:39:36.301Z,58.56
2023-02-09T21:42:23.917Z,58.80
2023-02-09T21:44:54.172Z,59.09
2023-02-09T21:47:30.193Z,59.15
2023-02-09T21:49:59.119Z,59.25
2023-02-09T21:52:28.492Z,59.40
2023-02-09T21:54:56.879Z,59.33
2023-02-09T21:57:26.205Z,59.25
2023-02-09T21:59:54.769Z,59.19
2023-02-09T22:02:23.141Z,59.30
2023-02-09T22:04:52.838Z,59.13
2023-02-09T22:07:21.258Z,59.35
2023-02-09T22:09:49.435Z,59.21
2023-02-09T22:12:18.019Z,59.06
2023-02-09T22:14:46.614Z,59.06
2023-02-09T22:17:14.888Z,59.02
2023-02-09T22:19:43.487Z,59.01
2023-02-09T22:22:11.967Z,59.03
2023-02-09T22:24:40.349Z,59.01
2023-02-09T22:27:08.536Z,59.12
2023-02-09T22:29:37.630Z,59.14
2023-02-09T22:32:06.525Z,59.13
2023-02-09T22:34:34.727Z,59.19
2023-02-09T22:37:02.991Z,59.02
2023-02-09T22:39:31.472Z,59.19
2023-02-09T22:42:01.005Z,59.09
2023-02-09T22:44:30.598Z,59.25
2023-02-09T22:46:59.086Z,59.23
2023-02-09T22:49:27.986Z,59.16
2023-02-09T22:51:56.472Z,59.25
2023-02-09T22:54:24.858Z,59.39
2023-02-09T22:56:53.166Z,59.23
2023-02-09T22:59:21.742Z,59.48
2023-02-09T23:01:50.327Z,59.50
2023-02-09T23:04:18.655Z,59.52
2023-02-09T23:06:47.300Z,59.55
2023-02-09T23:09:15.994Z,59.53
2023-02-09T23:11:44.680Z,59.43
2023-02-09T23:14:13.798Z,59.64
2023-02-09T23:16:43.927Z,59.41
2023-02-09T23:19:15.082Z,59.26
2023-02-09T23:21:46.416Z,59.24
2023-02-09T23:24:21.865Z,59.14
2023-02-09T23:26:51.043Z,59.26
2023-02-09T23:29:19.956Z,59.34
2023-02-09T23:31:48.653Z,59.12
2023-02-09T23:34:22.551Z,59.32
2023-02-09T23:36:50.666Z,59.72
2023-02-09T23:39:22.642Z,59.75
2023-02-09T23:41:51.087Z,59.71
2023-02-09T23:44:20.696Z,59.71
2023-02-09T23:46:49.489Z,59.32
2023-02-09T23:49:18.180Z,59.60
2023-02-09T23:51:47.077Z,59.86
2023-02-09T23:54:15.868Z,59.65
2023-02-09T23:56:46.487Z,59.58
2023-02-09T23:59:16.236Z,59.45
